Time;durP1;ratioP1;P1;durP2;ratioP2;P2;SDS_P1;SDS_P2;PMS_P1;PMS_P2;Temp;Humidity;BMP_temperature;BMP_pressure;BME280_temperature;BME280_humidity;BME280_pressure;Samples;Min_cycle;Max_cycle;Signal;HPM_P1;HPM_P2
2023/01/14 00:06:27;;;;;;;17.17;3.55;;;7.10;99.90;;;;;;4993686;28;20037;-90
2023/01/14 00:08:59;;;;;;;14.43;3.72;;;7.10;99.90;;;;;;4999302;28;20099;-90
2023/01/14 00:14:21;;;;;;;12.35;2.40;;;7.00;99.90;;;;;;5020947;28;20040;-90
2023/01/14 00:16:54;;;;;;;12.25;2.08;;;6.90;99.90;;;;;;4999309;28;20038;-91
2023/01/14 00:19:22;;;;;;;17.53;3.07;;;6.80;99.90;;;;;;4999632;28;20018;-90
2023/01/14 00:21:51;;;;;;;14.25;2.40;;;6.80;99.90;;;;;;5010948;28;20450;-89
2023/01/14 00:24:21;;;;;;;9.13;1.77;;;6.80;99.90;;;;;;5015274;28;20466;-90
2023/01/14 00:26:55;;;;;;;12.32;2.63;;;6.70;99.90;;;;;;5004490;28;20041;-90
2023/01/14 00:29:31;;;;;;;12.75;2.80;;;6.70;99.90;;;;;;4996428;28;20046;-90
2023/01/14 00:32:05;;;;;;;11.73;2.38;;;6.60;99.90;;;;;;5003674;28;20026;-92
2023/01/14 00:34:36;;;;;;;13.30;2.78;;;6.60;99.90;;;;;;5001228;28;20037;-90
2023/01/14 00:37:02;;;;;;;8.88;2.53;;;6.60;99.90;;;;;;4998567;28;20056;-90
2023/01/14 00:39:30;;;;;;;15.27;2.70;;;6.60;99.90;;;;;;5012721;28;20053;-89
2023/01/14 00:41:58;;;;;;;10.30;2.67;;;6.60;99.90;;;;;;4998125;28;20029;-89
2023/01/14 00:44:24;;;;;;;12.20;2.40;;;6.70;99.90;;;;;;5016410;28;20054;-90
2023/01/14 00:46:53;;;;;;;8.45;1.85;;;6.70;99.90;;;;;;4978854;28;20060;-90
2023/01/14 00:49:26;;;;;;;11.30;1.95;;;6.70;99.90;;;;;;4996474;28;20028;-90
2023/01/14 00:51:56;;;;;;;12.07;2.38;;;6.70;99.90;;;;;;5016189;28;20022;-91
2023/01/14 00:54:33;;;;;;;11.02;2.40;;;6.70;99.90;;;;;;4999116;28;20034;-90
2023/01/14 00:56:58;;;;;;;12.68;1.73;;;6.70;99.90;;;;;;4998272;28;20104;-88
2023/01/14 00:59:24;;;;;;;11.90;2.75;;;6.70;99.90;;;;;;4998127;28;20466;-89
2023/01/14 01:01:51;;;;;;;10.10;2.38;;;6.70;99.90;;;;;;4998045;28;20565;-88
2023/01/14 01:04:24;;;;;;;12.82;2.42;;;6.80;99.90;;;;;;5016115;28;20036;-88
2023/01/14 01:06:50;;;;;;;9.13;2.53;;;6.80;99.90;;;;;;4998150;28;20034;-88
2023/01/14 01:09:19;;;;;;;15.57;2.67;;;6.80;99.90;;;;;;4981495;28;20053;-89
2023/01/14 01:11:45;;;;;;;10.98;2.60;;;6.90;99.90;;;;;;4997790;28;20018;-89
2023/01/14 01:14:10;;;;;;;14.90;2.83;;;6.80;99.90;;;;;;4981636;28;20021;-90
2023/01/14 01:16:42;;;;;;;11.00;2.88;;;6.80;99.90;;;;;;4997807;28;20028;-89
2023/01/14 01:19:07;;;;;;;10.82;2.33;;;6.80;99.90;;;;;;4998069;28;20028;-89
2023/01/14 01:21:36;;;;;;;13.23;3.03;;;6.80;99.90;;;;;;5015074;28;20097;-89
2023/01/14 01:24:02;;;;;;;16.45;3.17;;;6.80;99.90;;;;;;4997249;28;20030;-88
2023/01/14 01:26:28;;;;;;;16.50;3.60;;;6.80;99.90;;;;;;4997803;28;20454;-89
2023/01/14 01:28:56;;;;;;;10.77;2.80;;;6.80;99.90;;;;;;5014841;28;20046;-89
2023/01/14 01:31:27;;;;;;;18.38;2.95;;;6.80;99.90;;;;;;5015216;28;20131;-89
2023/01/14 01:33:53;;;;;;;13.63;3.25;;;6.80;99.90;;;;;;4997515;28;20030;-89
2023/01/14 01:36:39;;;;;;;11.75;2.58;;;6.80;99.90;;;;;;4997762;28;20058;-89
2023/01/14 01:39:05;;;;;;;15.85;2.60;;;6.80;99.90;;;;;;5015179;28;20030;-89
2023/01/14 01:41:32;;;;;;;20.27;3.97;;;6.70;99.90;;;;;;4997569;28;20076;-88
2023/01/14 01:43:58;;;;;;;17.50;3.03;;;6.70;99.90;;;;;;4997779;28;20022;-88
2023/01/14 01:46:24;;;;;;;13.85;2.30;;;6.60;99.90;;;;;;5015090;28;20105;-88
2023/01/14 01:49:28;;;;;;;18.45;2.90;;;6.60;99.90;;;;;;5014447;28;20427;-89
2023/01/14 01:55:00;;;;;;;12.02;2.97;;;6.40;99.90;;;;;;5012460;28;19913;-88
2023/01/14 01:57:36;;;;;;;15.23;3.17;;;6.40;99.90;;;;;;4996655;28;20181;-88
2023/01/14 02:00:07;;;;;;;12.40;2.47;;;6.40;99.90;;;;;;4997322;28;20022;-89
2023/01/14 02:02:36;;;;;;;15.70;2.88;;;6.30;99.90;;;;;;4980872;28;20026;-88
2023/01/14 02:05:02;;;;;;;12.90;2.30;;;6.30;99.90;;;;;;4997404;28;20022;-90
2023/01/14 02:07:28;;;;;;;11.23;2.58;;;6.20;99.90;;;;;;4996909;28;20088;-87
2023/01/14 02:10:00;;;;;;;14.38;2.38;;;6.30;99.90;;;;;;4997031;28;20022;-87
2023/01/14 02:13:16;;;;;;;13.90;2.63;;;6.30;99.90;;;;;;5011435;28;20077;-88
2023/01/14 02:16:08;;;;;;;17.95;3.35;;;6.20;99.90;;;;;;4997149;28;20481;-88
2023/01/14 02:18:46;;;;;;;13.75;2.22;;;6.30;99.90;;;;;;4996614;28;20029;-87
2023/01/14 02:21:20;;;;;;;20.67;3.03;;;6.20;99.90;;;;;;4996869;28;20084;-88
2023/01/14 02:24:00;;;;;;;8.23;1.85;;;6.20;99.90;;;;;;5014267;28;20026;-88
2023/01/14 02:27:03;;;;;;;14.38;2.90;;;6.10;99.90;;;;;;4993121;28;20501;-90
2023/01/14 02:30:06;;;;;;;12.52;2.90;;;6.10;99.90;;;;;;4993215;28;20057;-88
2023/01/14 02:33:17;;;;;;;19.08;2.47;;;6.00;99.90;;;;;;4993312;28;20139;-87
2023/01/14 02:35:56;;;;;;;18.55;3.20;;;6.00;99.90;;;;;;4993367;28;20018;-88
2023/01/14 02:38:47;;;;;;;15.07;2.45;;;6.00;99.90;;;;;;4993087;28;20030;-89
2023/01/14 02:44:06;;;;;;;16.88;3.40;;;5.90;99.90;;;;;;4976871;28;20014;-88
2023/01/14 02:44:13;;;;;;;13.02;2.90;;;5.80;99.90;;;;;;5013572;28;20030;-89
2023/01/14 02:47:00;;;;;;;11.85;2.75;;;5.80;99.90;;;;;;5013462;28;20101;-89
2023/01/14 02:49:30;;;;;;;13.63;3.20;;;5.80;99.90;;;;;;5013755;28;20117;-88
2023/01/14 02:51:56;;;;;;;11.23;3.10;;;5.70;99.90;;;;;;4995473;28;20037;-88
2023/01/14 02:54:22;;;;;;;12.13;2.70;;;5.70;99.90;;;;;;4995716;28;20025;-88
2023/01/14 02:56:49;;;;;;;15.18;3.45;;;5.70;99.90;;;;;;4996274;28;20037;-89
2023/01/14 02:59:43;;;;;;;18.83;3.60;;;5.60;99.90;;;;;;4996530;28;20049;-88
2023/01/14 03:02:32;;;;;;;19.00;3.58;;;5.60;99.90;;;;;;4996516;28;20030;-87
2023/01/14 03:05:29;;;;;;;18.77;3.72;;;5.60;99.90;;;;;;4995913;28;20389;-88
2023/01/14 03:08:12;;;;;;;22.38;4.85;;;5.60;99.90;;;;;;5013856;28;20069;-89
2023/01/14 03:10:49;;;;;;;20.67;5.30;;;5.60;99.90;;;;;;4996169;28;20060;-91
2023/01/14 03:13:39;;;;;;;19.05;3.20;;;5.50;99.90;;;;;;4996169;28;20280;-88
2023/01/14 03:16:15;;;;;;;17.50;3.10;;;5.50;99.90;;;;;;4996150;28;20030;-88
2023/01/14 03:18:44;;;;;;;22.17;4.00;;;5.50;99.90;;;;;;4996112;28;20033;-89
2023/01/14 03:21:15;;;;;;;19.70;4.40;;;5.50;99.90;;;;;;5013760;28;20062;-89
2023/01/14 03:24:22;;;;;;;18.80;3.53;;;5.50;99.90;;;;;;5013455;28;20061;-88
2023/01/14 03:26:52;;;;;;;17.00;3.75;;;5.50;99.90;;;;;;5013611;28;20041;-88
2023/01/14 03:29:24;;;;;;;16.90;2.85;;;5.40;99.90;;;;;;5013894;28;20133;-89
2023/01/14 03:31:58;;;;;;;16.23;2.85;;;5.40;99.90;;;;;;4996049;28;20389;-89
2023/01/14 03:34:29;;;;;;;20.25;3.35;;;5.40;99.90;;;;;;4979979;28;20080;-88
2023/01/14 03:37:02;;;;;;;15.90;3.22;;;5.40;99.90;;;;;;4995565;28;20040;-89
2023/01/14 03:39:43;;;;;;;19.52;3.65;;;5.40;99.90;;;;;;5013843;28;20022;-89
2023/01/14 03:42:21;;;;;;;24.40;3.83;;;5.40;99.90;;;;;;4996281;28;20377;-88
2023/01/14 03:45:27;;;;;;;27.40;6.03;;;5.40;99.90;;;;;;4995806;28;20022;-88
2023/01/14 03:47:53;;;;;;;20.25;3.30;;;5.40;99.90;;;;;;5013552;28;20077;-88
2023/01/14 03:50:23;;;;;;;17.63;4.15;;;5.50;99.90;;;;;;4996001;28;20066;-89
2023/01/14 03:53:01;;;;;;;27.05;4.65;;;5.40;99.90;;;;;;4996318;28;20041;-88
2023/01/14 03:55:50;;;;;;;21.55;3.92;;;5.50;99.90;;;;;;5017136;28;20358;-88
2023/01/14 03:58:31;;;;;;;27.73;6.25;;;5.50;99.90;;;;;;5016627;28;20385;-88
2023/01/14 04:01:28;;;;;;;29.50;4.90;;;5.50;99.90;;;;;;4999312;28;20026;-89
2023/01/14 04:03:54;;;;;;;26.08;5.13;;;5.50;99.90;;;;;;4996898;28;20040;-88
2023/01/14 04:06:32;;;;;;;21.92;4.20;;;5.50;99.90;;;;;;4999597;28;20064;-88
2023/01/14 04:08:58;;;;;;;28.13;4.22;;;5.60;99.90;;;;;;5016472;28;20482;-88
2023/01/14 04:11:23;;;;;;;29.52;4.72;;;5.60;99.90;;;;;;4998541;28;20077;-88
2023/01/14 04:16:33;;;;;;;31.00;5.55;;;5.60;99.90;;;;;;5016400;28;20036;-88
2023/01/14 04:18:59;;;;;;;19.75;3.50;;;5.70;99.90;;;;;;4999112;28;20018;-88
2023/01/14 04:21:25;;;;;;;30.75;4.45;;;5.70;99.90;;;;;;4998984;28;20087;-88
2023/01/14 04:23:50;;;;;;;34.33;5.55;;;5.80;99.90;;;;;;5016316;28;20378;-88
2023/01/14 04:26:24;;;;;;;27.60;4.97;;;5.70;99.90;;;;;;4998353;28;20026;-88
2023/01/14 04:28:52;;;;;;;33.17;5.13;;;5.80;99.90;;;;;;4998663;28;20057;-89
2023/01/14 04:31:18;;;;;;;29.85;4.65;;;5.80;99.90;;;;;;4998724;28;20113;-89
2023/01/14 04:33:43;;;;;;;26.48;3.90;;;5.80;99.90;;;;;;4998465;28;20466;-89
2023/01/14 04:36:09;;;;;;;21.63;4.32;;;5.80;99.90;;;;;;4998378;28;20034;-89
2023/01/14 04:38:35;;;;;;;20.55;3.80;;;5.90;99.90;;;;;;4997985;28;20034;-89
2023/01/14 04:41:00;;;;;;;30.20;4.32;;;5.90;99.90;;;;;;4998418;28;20030;-88
2023/01/14 04:43:29;;;;;;;18.85;3.85;;;5.90;99.90;;;;;;4997843;28;20049;-88
2023/01/14 04:45:54;;;;;;;19.48;3.72;;;5.90;99.90;;;;;;4998081;28;20541;-87
2023/01/14 04:48:22;;;;;;;23.77;4.25;;;5.90;99.90;;;;;;4998469;28;20183;-88
2023/01/14 04:50:50;;;;;;;26.33;4.63;;;5.90;99.90;;;;;;4998324;28;20446;-89
2023/01/14 04:53:15;;;;;;;21.90;3.60;;;5.90;99.90;;;;;;4997946;28;20034;-88
2023/01/14 04:55:43;;;;;;;21.25;3.55;;;5.90;99.90;;;;;;4998275;28;20069;-88
2023/01/14 04:58:11;;;;;;;18.27;3.45;;;5.90;99.90;;;;;;5015739;28;20030;-88
2023/01/14 05:00:37;;;;;;;24.55;4.38;;;5.80;99.90;;;;;;4997952;28;20030;-88
2023/01/14 05:03:05;;;;;;;22.08;4.00;;;5.80;99.90;;;;;;4998305;28;20068;-88
2023/01/14 05:05:32;;;;;;;27.42;3.90;;;5.80;99.90;;;;;;4997697;28;20026;-88
2023/01/14 05:07:59;;;;;;;17.85;3.30;;;5.80;99.90;;;;;;5014971;28;20026;-88
2023/01/14 05:10:25;;;;;;;28.02;4.30;;;5.80;99.90;;;;;;5015558;28;20040;-88
2023/01/14 05:13:02;;;;;;;25.35;4.13;;;5.80;99.90;;;;;;5015433;28;20026;-88
2023/01/14 05:15:33;;;;;;;25.38;4.05;;;5.90;99.90;;;;;;4998094;28;20026;-88
2023/01/14 05:18:02;;;;;;;23.17;3.90;;;5.90;99.90;;;;;;4998060;28;20425;-88
2023/01/14 05:20:28;;;;;;;22.27;3.47;;;5.90;99.90;;;;;;4998281;28;20026;-88
2023/01/14 05:23:11;;;;;;;25.20;3.90;;;5.90;99.90;;;;;;4997757;28;20061;-88
2023/01/14 05:25:37;;;;;;;20.20;3.40;;;5.90;99.90;;;;;;4998148;28;20027;-88
2023/01/14 05:28:36;;;;;;;23.35;4.80;;;6.00;99.90;;;;;;5015172;28;20117;-89
2023/01/14 05:31:14;;;;;;;20.73;3.65;;;5.90;99.90;;;;;;4938801;29;20050;-88
2023/01/14 05:33:43;;;;;;;20.58;4.18;;;6.00;99.90;;;;;;4967508;28;20482;-90
2023/01/14 05:36:09;;;;;;;16.33;3.30;;;6.00;99.90;;;;;;5013212;28;20117;-88
2023/01/14 05:38:36;;;;;;;18.50;3.50;;;6.00;99.90;;;;;;5013377;28;20113;-88
2023/01/14 05:41:01;;;;;;;24.10;4.20;;;6.00;99.90;;;;;;5013813;28;20018;-89
2023/01/14 05:46:17;;;;;;;21.92;3.88;;;6.00;99.90;;;;;;5015017;28;20397;-89
2023/01/14 05:48:46;;;;;;;22.50;4.13;;;6.00;99.90;;;;;;5013581;28;20029;-90
2023/01/14 05:51:17;;;;;;;16.85;2.72;;;6.00;99.90;;;;;;5014779;28;20045;-88
2023/01/14 05:53:44;;;;;;;16.80;3.13;;;6.00;99.90;;;;;;5013742;28;20026;-89
2023/01/14 05:56:09;;;;;;;24.08;3.35;;;6.00;99.90;;;;;;5013672;28;20033;-88
2023/01/14 05:58:35;;;;;;;18.35;3.15;;;6.00;99.90;;;;;;5013035;28;20034;-88
2023/01/14 06:06:39;;;;;;;15.02;3.08;;;6.00;99.90;;;;;;5014420;28;20049;-88
2023/01/14 06:09:17;;;;;;;19.42;3.53;;;6.00;99.90;;;;;;5013415;28;20030;-88
2023/01/14 06:12:01;;;;;;;22.63;3.58;;;6.00;99.90;;;;;;5013318;28;20018;-88
2023/01/14 06:14:34;;;;;;;20.35;3.40;;;6.10;99.90;;;;;;5014435;28;20097;-88
2023/01/14 06:17:08;;;;;;;19.73;2.83;;;6.10;99.90;;;;;;5013429;28;20081;-88
2023/01/14 06:19:49;;;;;;;14.50;2.72;;;6.10;99.90;;;;;;5014124;28;20034;-89
2023/01/14 06:22:16;;;;;;;17.73;3.30;;;6.10;99.90;;;;;;5013581;28;20026;-89
2023/01/14 06:24:42;;;;;;;21.75;3.10;;;6.20;99.90;;;;;;5012753;28;20026;-89
2023/01/14 06:27:07;;;;;;;20.60;3.15;;;6.20;99.90;;;;;;5012332;28;20029;-88
2023/01/14 06:29:33;;;;;;;21.35;3.25;;;6.20;99.90;;;;;;5012713;28;20509;-89
2023/01/14 06:31:59;;;;;;;22.90;3.05;;;6.20;99.90;;;;;;5013131;28;20025;-89
2023/01/14 06:34:24;;;;;;;18.70;3.03;;;6.20;99.90;;;;;;5013059;28;20022;-88
2023/01/14 06:36:50;;;;;;;22.80;3.40;;;6.20;99.90;;;;;;5014531;28;20161;-89
2023/01/14 06:39:16;;;;;;;21.70;3.33;;;6.30;99.90;;;;;;5013201;28;20033;-89
2023/01/14 06:41:42;;;;;;;18.10;3.92;;;6.30;99.90;;;;;;5012411;28;20018;-89
2023/01/14 06:44:10;;;;;;;19.05;3.08;;;6.30;99.90;;;;;;5012676;28;20040;-89
2023/01/14 06:46:36;;;;;;;23.42;3.20;;;6.30;99.90;;;;;;5012579;28;20049;-89
2023/01/14 06:49:04;;;;;;;23.70;4.65;;;6.30;99.90;;;;;;5012421;28;20062;-88
2023/01/14 06:51:32;;;;;;;20.35;4.88;;;6.40;99.90;;;;;;4996933;28;20179;-88
2023/01/14 06:53:57;;;;;;;23.65;3.58;;;6.40;99.90;;;;;;5013080;28;20021;-88
2023/01/14 06:56:24;;;;;;;24.92;3.35;;;6.40;99.90;;;;;;5012462;28;20045;-87
2023/01/14 06:58:50;;;;;;;19.90;3.03;;;6.40;99.90;;;;;;5013766;28;20066;-89
2023/01/14 07:01:16;;;;;;;18.60;3.28;;;6.40;99.90;;;;;;5012402;28;20060;-88
2023/01/14 07:03:42;;;;;;;16.13;2.67;;;6.40;99.90;;;;;;5012405;28;20053;-88
2023/01/14 07:06:08;;;;;;;17.75;3.03;;;6.40;99.90;;;;;;5012053;28;20410;-87
2023/01/14 07:08:38;;;;;;;16.38;3.13;;;6.30;99.90;;;;;;5013677;28;20034;-88
2023/01/14 07:11:04;;;;;;;13.43;2.90;;;6.30;99.90;;;;;;5011911;28;20022;-87
2023/01/14 07:13:32;;;;;;;24.35;3.83;;;6.30;99.90;;;;;;5013654;28;20414;-87
2023/01/14 07:15:58;;;;;;;21.23;3.33;;;6.20;99.90;;;;;;5012027;28;20034;-87
2023/01/14 07:18:25;;;;;;;18.60;3.38;;;6.20;99.90;;;;;;5012407;28;20073;-88
2023/01/14 07:20:54;;;;;;;19.00;3.22;;;6.20;99.90;;;;;;5012246;28;20053;-88
2023/01/14 07:23:19;;;;;;;19.33;3.22;;;6.10;99.90;;;;;;5012219;28;20057;-89
2023/01/14 07:25:45;;;;;;;17.98;3.40;;;6.20;99.90;;;;;;5012319;28;20062;-88
2023/01/14 07:28:11;;;;;;;15.90;2.75;;;6.10;99.90;;;;;;5013087;28;20053;-88
2023/01/14 07:30:38;;;;;;;18.55;3.08;;;6.10;99.90;;;;;;5015902;28;20053;-88
2023/01/14 07:33:03;;;;;;;20.73;3.00;;;6.10;99.90;;;;;;5017647;28;20026;-89
2023/01/14 07:35:33;;;;;;;19.73;3.15;;;6.10;99.90;;;;;;5016005;28;20053;-89
2023/01/14 07:38:04;;;;;;;24.25;4.05;;;6.10;99.90;;;;;;5017021;28;20026;-89
2023/01/14 07:40:30;;;;;;;21.10;3.13;;;6.10;99.90;;;;;;5016263;28;20037;-89
2023/01/14 07:42:59;;;;;;;18.80;3.10;;;6.10;99.90;;;;;;4997759;28;20054;-88
2023/01/14 07:45:26;;;;;;;19.77;3.83;;;6.10;99.90;;;;;;5015745;28;20021;-89
2023/01/14 07:47:52;;;;;;;20.60;2.97;;;6.10;99.90;;;;;;5015775;28;20041;-88
2023/01/14 07:50:21;;;;;;;22.48;3.45;;;6.10;99.90;;;;;;5014745;28;20034;-88
2023/01/14 07:52:56;;;;;;;20.95;4.38;;;6.20;99.90;;;;;;5014305;28;20482;-90
2023/01/14 07:55:22;;;;;;;25.05;3.67;;;6.20;99.90;;;;;;5016501;28;20093;-89
2023/01/14 07:57:51;;;;;;;22.77;4.60;;;6.20;99.90;;;;;;5015290;28;20030;-91
2023/01/14 08:00:19;;;;;;;20.65;4.20;;;6.10;99.90;;;;;;5015720;28;20026;-89
2023/01/14 08:02:51;;;;;;;19.50;4.32;;;6.20;99.90;;;;;;5013305;28;20026;-91
2023/01/14 08:05:29;;;;;;;20.25;4.72;;;6.20;99.90;;;;;;5032920;28;20520;-89
2023/01/14 08:08:15;;;;;;;20.00;4.47;;;6.20;99.90;;;;;;5016559;28;20041;-89
2023/01/14 08:10:49;;;;;;;25.50;4.60;;;6.20;99.90;;;;;;4985284;28;20030;-89
2023/01/14 08:13:15;;;;;;;21.27;3.80;;;6.20;99.90;;;;;;4999355;28;20049;-92
2023/01/14 08:15:40;;;;;;;18.65;4.15;;;6.30;99.90;;;;;;4999009;28;20026;-90
2023/01/14 08:18:09;;;;;;;23.33;4.88;;;6.30;99.90;;;;;;5017035;28;20106;-91
2023/01/14 08:20:35;;;;;;;15.70;4.35;;;6.30;99.90;;;;;;4999097;28;20061;-90
2023/01/14 08:23:06;;;;;;;17.65;3.83;;;6.30;99.90;;;;;;4999258;28;20064;-91
2023/01/14 08:25:31;;;;;;;16.50;4.35;;;6.30;99.90;;;;;;4998955;28;20474;-90
2023/01/14 08:28:05;;;;;;;16.55;4.43;;;6.30;99.90;;;;;;4998782;28;20049;-90
2023/01/14 08:30:31;;;;;;;20.35;4.43;;;6.40;99.90;;;;;;4998386;28;20048;-91
2023/01/14 08:33:01;;;;;;;16.38;4.00;;;6.40;99.90;;;;;;4999144;28;20034;-93
2023/01/14 08:35:32;;;;;;;18.48;4.30;;;6.40;99.90;;;;;;4983887;28;20026;-93
2023/01/14 08:38:00;;;;;;;20.92;5.00;;;6.50;99.90;;;;;;4998805;28;20494;-90
2023/01/14 08:40:26;;;;;;;12.10;4.55;;;6.50;99.90;;;;;;5010989;28;20036;-94
2023/01/14 08:42:56;;;;;;;13.40;4.55;;;6.50;99.90;;;;;;4998637;28;20104;-90
2023/01/14 08:45:22;;;;;;;17.42;4.75;;;6.50;99.90;;;;;;4999247;28;20053;-91
2023/01/14 08:47:50;;;;;;;13.90;4.32;;;6.50;99.90;;;;;;5012517;28;20441;-92
2023/01/14 08:50:16;;;;;;;18.67;5.43;;;6.60;99.90;;;;;;5013020;28;20038;-92
2023/01/14 08:52:42;;;;;;;15.07;4.13;;;6.60;99.90;;;;;;4998429;28;20081;-91
2023/01/14 08:55:08;;;;;;;12.23;4.57;;;6.60;99.90;;;;;;4998007;28;20022;-91
2023/01/14 08:57:41;;;;;;;15.80;4.47;;;6.60;99.90;;;;;;4998467;28;20030;-91
2023/01/14 09:00:10;;;;;;;22.25;4.40;;;6.70;99.90;;;;;;4998428;28;20049;-91
2023/01/14 09:02:36;;;;;;;15.15;4.60;;;6.70;99.90;;;;;;4997846;28;20036;-89
2023/01/14 09:05:02;;;;;;;12.15;3.90;;;6.70;99.90;;;;;;5015956;28;20104;-94
2023/01/14 09:19:31;;;;;;;12.88;4.47;;;6.90;99.90;;;;;;5015995;28;20585;-92
2023/01/14 09:21:57;;;;;;;11.27;3.70;;;6.90;99.90;;;;;;4997453;28;20124;-92
2023/01/14 09:24:26;;;;;;;12.15;3.45;;;7.00;99.90;;;;;;4998274;28;20029;-91
2023/01/14 09:27:07;;;;;;;11.95;3.13;;;7.00;99.90;;;;;;4998399;28;20030;-91
2023/01/14 09:29:38;;;;;;;15.57;4.13;;;7.10;99.90;;;;;;4998240;28;20454;-91
2023/01/14 09:32:21;;;;;;;10.05;3.30;;;7.10;99.90;;;;;;4998246;28;20033;-91
2023/01/14 09:35:10;;;;;;;12.77;3.42;;;7.10;99.90;;;;;;4998255;28;20022;-90
2023/01/14 09:37:36;;;;;;;14.18;4.07;;;7.10;99.90;;;;;;4997677;28;20049;-93
2023/01/14 09:40:06;;;;;;;8.88;3.00;;;7.10;99.90;;;;;;4997052;28;20030;-90
2023/01/14 09:42:48;;;;;;;12.32;3.72;;;7.20;99.90;;;;;;4998144;28;20032;-92
2023/01/14 09:46:07;;;;;;;13.07;3.10;;;7.20;99.90;;;;;;4981738;28;20038;-93
2023/01/14 09:48:34;;;;;;;14.18;3.28;;;7.30;99.90;;;;;;5015350;28;20037;-92
2023/01/14 09:51:29;;;;;;;9.52;2.75;;;7.30;99.90;;;;;;5014761;28;20104;-91
2023/01/14 09:53:57;;;;;;;8.10;2.55;;;7.30;99.90;;;;;;4997774;28;20022;-92
2023/01/14 09:56:51;;;;;;;8.73;2.53;;;7.30;99.90;;;;;;4997630;28;20080;-91
2023/01/14 09:59:52;;;;;;;7.80;2.42;;;7.30;99.90;;;;;;4997669;28;20458;-91
2023/01/14 10:02:56;;;;;;;10.50;2.40;;;7.30;99.90;;;;;;4997825;28;20109;-91
2023/01/14 10:05:32;;;;;;;8.30;2.60;;;7.40;99.90;;;;;;5015188;28;20034;-91
2023/01/14 10:08:08;;;;;;;8.32;2.40;;;7.40;99.90;;;;;;4997239;28;20041;-93
2023/01/14 10:10:44;;;;;;;6.53;2.00;;;7.40;99.90;;;;;;4997551;28;20455;-91
2023/01/14 10:13:31;;;;;;;8.13;2.22;;;7.40;99.90;;;;;;4997511;28;20021;-91
2023/01/14 10:16:36;;;;;;;10.02;2.70;;;7.50;99.90;;;;;;4997583;28;20029;-91
2023/01/14 10:19:14;;;;;;;10.15;2.88;;;7.50;99.90;;;;;;4983368;28;20030;-94
2023/01/14 10:22:20;;;;;;;8.80;2.30;;;7.50;99.90;;;;;;4996992;28;20052;-92
2023/01/14 10:24:55;;;;;;;7.78;2.58;;;7.50;99.90;;;;;;4968487;28;20038;-92
2023/01/14 10:27:25;;;;;;;10.30;2.80;;;7.50;99.90;;;;;;4996706;28;20053;-93
2023/01/14 10:30:31;;;;;;;9.82;3.97;;;7.50;99.90;;;;;;5014521;28;20046;-91
2023/01/14 10:33:07;;;;;;;10.73;3.70;;;7.60;99.90;;;;;;5007801;28;20394;-91
2023/01/14 10:35:52;;;;;;;11.00;2.90;;;7.60;99.90;;;;;;5016489;28;20028;-91
2023/01/14 10:38:25;;;;;;;9.02;2.40;;;7.60;99.90;;;;;;5034010;28;20048;-91
2023/01/14 10:41:04;;;;;;;7.65;2.42;;;7.60;99.90;;;;;;5016588;28;20029;-90
2023/01/14 10:43:38;;;;;;;9.82;2.60;;;7.60;99.90;;;;;;5032619;28;20030;-91
2023/01/14 10:46:24;;;;;;;7.10;2.50;;;7.60;99.90;;;;;;5006010;28;20033;-90
2023/01/14 10:49:10;;;;;;;;;;;;;;;;;;;;;
2023/01/14 10:51:57;;;;;;;9.38;2.88;;;7.70;99.90;;;;;;5025935;28;20021;-90
2023/01/14 10:54:27;;;;;;;10.10;2.72;;;7.70;99.90;;;;;;5020406;28;20075;-89
2023/01/14 10:57:16;;;;;;;10.32;2.50;;;7.80;99.90;;;;;;5006436;28;20036;-93
2023/01/14 10:59:51;;;;;;;9.70;2.08;;;7.80;99.90;;;;;;5003608;28;20029;-92
2023/01/14 11:02:53;;;;;;;8.25;1.95;;;7.90;99.90;;;;;;5018922;28;20018;-92
2023/01/14 11:05:47;;;;;;;7.75;2.05;;;7.90;99.90;;;;;;5042470;28;20388;-90
2023/01/14 11:08:31;;;;;;;6.43;1.80;;;7.90;99.90;;;;;;5032978;28;20394;-90
2023/01/14 11:11:36;;;;;;;6.80;2.05;;;8.00;99.90;;;;;;5016161;28;20025;-89
2023/01/14 11:14:29;;;;;;;10.57;2.15;;;8.00;99.90;;;;;;5012463;28;20037;-91
2023/01/14 11:17:35;;;;;;;9.70;1.90;;;8.00;99.90;;;;;;5016288;28;20026;-89
2023/01/14 11:20:27;;;;;;;6.63;2.30;;;8.10;99.90;;;;;;5033335;28;20030;-91
2023/01/14 11:23:03;;;;;;;12.88;2.05;;;8.10;99.90;;;;;;5015623;28;20385;-91
2023/01/14 11:25:42;;;;;;;7.82;1.80;;;8.10;99.90;;;;;;5015273;28;20041;-90
2023/01/14 11:28:45;;;;;;;6.85;1.80;;;8.20;99.90;;;;;;4996406;28;20036;-90
2023/01/14 11:31:59;;;;;;;9.75;2.08;;;8.20;99.90;;;;;;4996227;28;20036;-92
2023/01/14 11:34:39;;;;;;;10.07;2.20;;;8.20;99.90;;;;;;4996570;28;20032;-93
2023/01/14 11:37:16;;;;;;;7.75;2.10;;;8.30;99.90;;;;;;4996418;28;20034;-91
2023/01/14 11:40:01;;;;;;;10.25;2.67;;;8.30;99.90;;;;;;4996679;28;20037;-91
2023/01/14 11:42:28;;;;;;;7.68;1.98;;;8.40;99.90;;;;;;4996207;28;20949;-91
2023/01/14 11:45:17;;;;;;;8.38;1.63;;;8.40;99.90;;;;;;4976265;28;20023;-92
2023/01/14 11:48:44;;;;;;;4.88;1.40;;;8.40;99.90;;;;;;4992364;28;20026;-90
2023/01/14 11:51:37;;;;;;;;;;;;;;;;;;;;;
2023/01/14 11:54:37;;;;;;;5.60;1.80;;;8.50;99.90;;;;;;5000634;28;20113;-91
2023/01/14 11:57:07;;;;;;;4.90;1.45;;;8.50;99.90;;;;;;4951022;28;20052;-91
2023/01/14 11:59:37;;;;;;;6.93;1.50;;;8.50;99.90;;;;;;4982260;28;20025;-91
2023/01/14 12:02:29;;;;;;;4.55;1.80;;;8.50;99.90;;;;;;5010542;28;20442;-92
2023/01/14 12:05:18;;;;;;;4.03;1.20;;;8.60;99.90;;;;;;4991996;28;20143;-89
2023/01/14 12:08:01;;;;;;;4.85;1.85;;;8.60;99.90;;;;;;4978674;28;20382;-92
2023/01/14 12:10:32;;;;;;;3.25;1.40;;;8.60;99.90;;;;;;4976404;28;20022;-93
2023/01/14 12:19:42;;;;;;;3.90;1.60;;;8.70;99.90;;;;;;4998161;28;20049;-92
2023/01/14 12:22:23;;;;;;;4.40;1.30;;;8.70;99.90;;;;;;4996866;28;20089;-92
2023/01/14 12:25:29;;;;;;;2.88;1.05;;;8.80;99.90;;;;;;4986093;28;20107;-91
2023/01/14 12:28:30;;;;;;;5.05;1.50;;;8.80;99.90;;;;;;4986877;28;20034;-91
2023/01/14 12:31:27;;;;;;;3.45;1.42;;;8.80;99.90;;;;;;4999012;28;20046;-92
2023/01/14 12:34:18;;;;;;;3.33;1.33;;;8.80;99.90;;;;;;4980484;28;20048;-91
2023/01/14 12:36:54;;;;;;;5.05;1.63;;;8.80;99.90;;;;;;4979857;28;20061;-93
2023/01/14 12:45:44;;;;;;;2.28;1.33;;;8.90;99.90;;;;;;4980178;28;20034;-92
2023/01/14 12:48:34;;;;;;;3.50;1.65;;;8.80;99.90;;;;;;4974969;28;20026;-91
2023/01/14 12:51:25;;;;;;;4.28;1.45;;;8.90;99.90;;;;;;4972384;28;20030;-92
2023/01/14 12:53:59;;;;;;;4.55;1.58;;;8.90;99.90;;;;;;4989782;28;20026;-92
2023/01/14 12:56:29;;;;;;;6.70;1.50;;;8.90;99.90;;;;;;4991216;28;20085;-94
2023/01/14 12:59:08;;;;;;;2.40;1.13;;;8.90;99.90;;;;;;4981205;28;20019;-92
2023/01/14 13:01:49;;;;;;;2.50;1.20;;;8.90;99.90;;;;;;4989798;28;20030;-91
2023/01/14 13:04:25;;;;;;;3.33;1.30;;;9.00;99.90;;;;;;5008498;28;20512;-90
2023/01/14 13:07:03;;;;;;;2.22;1.20;;;9.00;99.90;;;;;;4999242;28;20027;-92
2023/01/14 13:09:57;;;;;;;2.63;1.17;;;9.00;99.90;;;;;;4987965;28;20041;-91
2023/01/14 13:12:35;;;;;;;;;;;;;;;;;;;;;
2023/01/14 13:15:24;;;;;;;3.88;1.45;;;9.00;99.90;;;;;;5013325;28;20044;-93
2023/01/14 13:18:07;;;;;;;1.70;1.05;;;9.00;99.90;;;;;;4971846;28;20042;-93
2023/01/14 13:20:48;;;;;;;2.45;1.20;;;9.00;99.90;;;;;;4961776;28;20026;-93
2023/01/14 13:23:36;;;;;;;4.68;1.38;;;9.00;99.90;;;;;;4998056;28;20046;-93
2023/01/14 13:26:30;;;;;;;2.45;1.40;;;9.10;99.90;;;;;;4988688;28;20030;-93
2023/01/14 13:29:27;;;;;;;3.40;1.58;;;9.10;99.90;;;;;;4963185;28;20118;-94
2023/01/14 13:32:04;;;;;;;2.70;1.90;;;9.10;99.90;;;;;;5006618;28;20025;-93
2023/01/14 13:34:32;;;;;;;2.35;1.40;;;9.10;99.90;;;;;;4998988;28;20018;-93
2023/01/14 13:37:08;;;;;;;5.10;2.42;;;9.10;99.90;;;;;;4999180;28;20073;-95
2023/01/14 13:39:51;;;;;;;2.58;1.30;;;9.20;99.90;;;;;;4998313;28;20086;-93
2023/01/14 13:43:19;;;;;;;2.35;1.33;;;9.20;99.90;;;;;;4998743;28;20021;-91
2023/01/14 13:46:16;;;;;;;2.53;1.45;;;9.20;99.90;;;;;;4993203;28;20030;-94
2023/01/14 13:49:03;;;;;;;4.05;1.60;;;9.20;99.90;;;;;;4979188;28;20402;-95
2023/01/14 13:51:48;;;;;;;3.63;1.67;;;9.30;99.90;;;;;;4959137;28;20034;-91
2023/01/14 13:54:33;;;;;;;3.10;1.52;;;9.30;99.90;;;;;;4999839;28;20030;-92
2023/01/14 13:57:36;;;;;;;3.40;1.67;;;9.30;99.90;;;;;;4987445;28;20045;-91
2023/01/14 14:00:28;;;;;;;2.00;1.13;;;9.30;99.90;;;;;;4986986;28;20105;-92
2023/01/14 14:02:56;;;;;;;2.17;1.30;;;9.30;99.90;;;;;;4973473;28;20042;-94
2023/01/14 14:05:43;;;;;;;1.65;1.25;;;9.30;99.90;;;;;;4978844;28;20023;-94
2023/01/14 14:11:15;;;;;;;2.53;1.42;;;9.40;99.90;;;;;;4995131;28;19924;-92
2023/01/14 14:16:48;;;;;;;2.00;1.30;;;9.40;99.90;;;;;;5000723;28;20032;-93
2023/01/14 14:19:23;;;;;;;3.50;1.63;;;9.40;99.90;;;;;;4976238;28;20117;-92
2023/01/14 14:23:03;;;;;;;;;;;;;;;;;;;;;
2023/01/14 14:25:57;;;;;;;1.83;1.00;;;9.50;99.90;;;;;;4955479;28;20559;-93
2023/01/14 14:28:29;;;;;;;1.58;1.10;;;9.50;99.90;;;;;;4984741;28;20026;-95
2023/01/14 14:31:18;;;;;;;;;;;;;;;;;;;;;
2023/01/14 14:34:03;;;;;;;2.10;0.98;;;9.50;99.90;;;;;;5003918;28;20032;-94
2023/01/14 14:40:05;;;;;;;1.90;1.02;;;9.60;99.90;;;;;;4950980;28;20034;-95